Time;durP1;ratioP1;P1;durP2;ratioP2;P2;SDS_P1;SDS_P2;PMS_P1;PMS_P2;Temp;Humidity;BMP_temperature;BMP_pressure;BME280_temperature;BME280_humidity;BME280_pressure;Samples;Min_cycle;Max_cycle;Signal;HPM_P1;HPM_P2
2024/01/23 00:02:06;;;;;;;;;;;;;;;0.92;72.85;101247.09;5354133;32;34059;-67
2024/01/23 00:05:08;;;;;;;;;;;;;;;0.32;75.02;101232.34;5368607;32;34828;-67
2024/01/23 00:08:10;;;;;;;;;;;;;;;0.82;73.06;101243.47;5359109;32;35438;-68
2024/01/23 00:11:12;;;;;;;;;;;;;;;1.82;68.66;101243.00;5368428;32;34893;-67
2024/01/23 00:14:14;;;;;;;;;;;;;;;0.13;75.97;101219.97;5358177;32;34959;-67
2024/01/23 00:17:17;;;;;;;;;;;;;;;1.21;71.43;101241.41;5363861;32;35234;-67
2024/01/23 00:20:27;;;;;;;;;;;;;;;-0.14;75.17;101233.28;5369179;32;34485;-68
2024/01/23 00:23:29;;;;;;;;;;;;;;;0.59;74.77;101234.53;5367667;32;35568;-67
2024/01/23 00:26:31;;;;;;;;;;;;;;;1.62;69.97;101245.38;5358661;32;34293;-67
2024/01/23 00:29:34;;;;;;;;;;;;;;;0.14;72.94;101229.50;5371839;32;34988;-68
2024/01/23 00:32:36;;;;;;;;;;;;;;;0.28;76.74;101225.41;5354512;32;34703;-68
2024/01/23 00:35:38;;;;;;;;;;;;;;;0.62;72.84;101226.81;5372904;32;34902;-67
2024/01/23 00:38:41;;;;;;;;;;;;;;;0.33;75.66;101225.50;5369564;32;34865;-67
2024/01/23 00:41:43;;;;;;;;;;;;;;;0.58;72.85;101221.53;5373153;32;34382;-68
2024/01/23 00:44:45;;;;;;;;;;;;;;;-0.40;76.41;101188.91;5369579;32;34637;-71
2024/01/23 00:47:47;;;;;;;;;;;;;;;0.71;74.84;101197.59;5368492;32;34924;-67
2024/01/23 00:50:50;;;;;;;;;;;;;;;0.22;74.47;101187.41;5356724;32;35044;-67
2024/01/23 00:53:52;;;;;;;;;;;;;;;1.23;72.84;101204.34;5354447;32;35775;-67
2024/01/23 00:56:54;;;;;;;;;;;;;;;1.79;69.35;101206.66;5373123;32;35268;-69
2024/01/23 00:59:56;;;;;;;;;;;;;;;2.10;67.60;101233.75;5372897;32;34809;-67
2024/01/23 01:02:59;;;;;;;;;;;;;;;0.81;71.00;101222.75;5356264;32;34921;-67
2024/01/23 01:06:01;;;;;;;;;;;;;;;0.94;71.55;101224.66;5370893;32;34476;-68
2024/01/23 01:09:03;;;;;;;;;;;;;;;1.25;69.88;101225.06;5368304;32;34709;-68
2024/01/23 01:12:06;;;;;;;;;;;;;;;1.29;70.01;101227.72;5376200;32;35169;-67
2024/01/23 01:15:09;;;;;;;;;;;;;;;1.08;70.76;101219.66;5367698;32;34905;-68
2024/01/23 01:18:11;;;;;;;;;;;;;;;0.43;72.10;101219.59;5372394;32;35156;-67
2024/01/23 01:21:13;;;;;;;;;;;;;;;-0.25;76.30;101220.22;5355526;32;35759;-68
2024/01/23 01:24:15;;;;;;;;;;;;;;;0.78;73.06;101214.97;5369066;32;35456;-67
2024/01/23 01:27:22;;;;;;;;;;;;;;;0.84;72.01;101212.47;5354866;32;34916;-68
2024/01/23 01:30:28;;;;;;;;;;;;;;;0.89;72.53;101212.50;5353823;32;33711;-67
2024/01/23 01:33:30;;;;;;;;;;;;;;;0.93;72.41;101210.00;5357159;32;34283;-68
2024/01/23 01:36:33;;;;;;;;;;;;;;;1.60;68.40;101197.81;5361040;32;34657;-67
2024/01/23 01:39:35;;;;;;;;;;;;;;;0.65;72.48;101198.41;5372270;32;34398;-67
2024/01/23 01:42:37;;;;;;;;;;;;;;;0.24;74.77;101211.56;5368077;32;35002;-67
2024/01/23 01:45:39;;;;;;;;;;;;;;;0.63;73.99;101199.22;5357518;32;35628;-67
2024/01/23 01:48:42;;;;;;;;;;;;;;;0.73;73.96;101188.16;5370144;32;35007;-68
2024/01/23 01:51:44;;;;;;;;;;;;;;;0.86;72.88;101190.06;5348197;32;35146;-69
2024/01/23 01:54:46;;;;;;;;;;;;;;;0.76;73.38;101195.94;5357855;32;34749;-68
2024/01/23 01:57:48;;;;;;;;;;;;;;;0.44;72.58;101185.13;5340662;32;35538;-67
2024/01/23 02:00:52;;;;;;;;;;;;;;;0.26;74.51;101189.19;5346462;32;845459;-67
2024/01/23 02:03:54;;;;;;;;;;;;;;;0.78;72.68;101189.97;5367797;32;35466;-67
2024/01/23 02:06:57;;;;;;;;;;;;;;;1.15;71.99;101185.22;5371640;32;35435;-67
2024/01/23 02:10:00;;;;;;;;;;;;;;;0.24;73.96;101192.59;5372261;32;34282;-67
2024/01/23 02:13:02;;;;;;;;;;;;;;;2.07;68.41;101178.41;5368613;32;34620;-70
2024/01/23 02:16:04;;;;;;;;;;;;;;;0.89;70.58;101165.91;5360230;32;34418;-67
2024/01/23 02:19:06;;;;;;;;;;;;;;;1.06;71.48;101162.69;5356095;32;34696;-67
2024/01/23 02:22:08;;;;;;;;;;;;;;;0.45;71.01;101151.56;5374185;32;35021;-67
2024/01/23 02:25:13;;;;;;;;;;;;;;;0.52;72.71;101171.50;5371363;32;34618;-67
2024/01/23 02:28:15;;;;;;;;;;;;;;;1.99;68.57;101156.72;5368687;32;34543;-68
2024/01/23 02:31:17;;;;;;;;;;;;;;;1.21;69.48;101156.81;5373442;32;34925;-67
2024/01/23 02:34:21;;;;;;;;;;;;;;;1.58;69.20;101159.81;5369584;32;34301;-66
2024/01/23 02:37:23;;;;;;;;;;;;;;;2.62;65.01;101155.41;5360738;32;34365;-67
2024/01/23 02:40:25;;;;;;;;;;;;;;;1.13;68.79;101175.72;5370043;32;35435;-66
2024/01/23 02:43:28;;;;;;;;;;;;;;;0.58;71.33;101181.06;5373606;32;35344;-67
2024/01/23 02:46:30;;;;;;;;;;;;;;;0.39;73.75;101169.56;5369600;32;34818;-67
2024/01/23 02:49:32;;;;;;;;;;;;;;;1.16;73.12;101161.09;5368832;32;34631;-69
2024/01/23 02:52:34;;;;;;;;;;;;;;;1.52;69.53;101158.00;5373851;32;34625;-68
2024/01/23 02:55:36;;;;;;;;;;;;;;;1.33;70.82;101166.44;5368487;32;34358;-67
2024/01/23 02:58:40;;;;;;;;;;;;;;;0.87;71.59;101168.50;5377074;32;34378;-68
2024/01/23 03:01:43;;;;;;;;;;;;;;;1.17;70.40;101177.50;5359269;32;34230;-68
2024/01/23 03:04:45;;;;;;;;;;;;;;;1.12;69.97;101192.97;5371802;32;33422;-67
2024/01/23 03:07:48;;;;;;;;;;;;;;;0.22;73.26;101199.47;5367475;32;34360;-67
2024/01/23 03:10:50;;;;;;;;;;;;;;;1.76;69.13;101198.00;5372746;32;35006;-67
2024/01/23 03:13:52;;;;;;;;;;;;;;;1.33;70.71;101197.53;5360079;32;34604;-68
2024/01/23 03:16:54;;;;;;;;;;;;;;;0.43;74.30;101194.62;5366004;32;34298;-68
2024/01/23 03:19:58;;;;;;;;;;;;;;;0.49;74.70;101196.44;5347198;32;35670;-66
2024/01/23 03:23:00;;;;;;;;;;;;;;;0.90;73.67;101188.34;5368652;32;35128;-68
2024/01/23 03:26:02;;;;;;;;;;;;;;;1.36;72.52;101184.62;5371150;32;35612;-68
2024/01/23 03:29:05;;;;;;;;;;;;;;;1.17;73.16;101180.97;5369047;32;34899;-68
2024/01/23 03:32:07;;;;;;;;;;;;;;;1.27;71.56;101194.88;5368722;32;34775;-67
2024/01/23 03:35:09;;;;;;;;;;;;;;;0.48;73.33;101192.97;5373513;32;35066;-67
2024/01/23 03:38:12;;;;;;;;;;;;;;;0.73;74.33;101195.91;5354801;32;34831;-68
2024/01/23 03:41:15;;;;;;;;;;;;;;;1.04;73.43;101185.13;5374157;32;35108;-67
2024/01/23 03:44:21;;;;;;;;;;;;;;;1.41;71.61;101188.12;5355163;32;34364;-67
2024/01/23 03:47:23;;;;;;;;;;;;;;;0.54;73.95;101197.38;5357909;32;34351;-66
2024/01/23 03:50:26;;;;;;;;;;;;;;;0.21;74.95;101189.97;5357086;32;35354;-67
2024/01/23 03:53:28;;;;;;;;;;;;;;;0.54;76.22;101172.37;5369658;32;34752;-68
2024/01/23 03:56:30;;;;;;;;;;;;;;;0.27;76.06;101151.28;5372479;32;34901;-68
2024/01/23 03:59:32;;;;;;;;;;;;;;;0.48;76.67;101174.88;5354944;32;34793;-69
2024/01/23 04:02:37;;;;;;;;;;;;;;;1.36;72.23;101176.84;5375791;32;34999;-66
2024/01/23 04:05:39;;;;;;;;;;;;;;;0.89;72.60;101182.31;5370409;32;34252;-68
2024/01/23 04:08:41;;;;;;;;;;;;;;;0.50;75.86;101177.47;5370767;32;34054;-66
2024/01/23 04:11:46;;;;;;;;;;;;;;;1.35;73.18;101178.59;5371867;32;35159;-67
2024/01/23 04:14:49;;;;;;;;;;;;;;;1.70;71.19;101177.19;5369639;32;34991;-68
2024/01/23 04:17:51;;;;;;;;;;;;;;;0.22;75.56;101187.41;5361789;32;34288;-67
2024/01/23 04:20:53;;;;;;;;;;;;;;;0.65;76.52;101185.47;5369853;32;34984;-67
2024/01/23 04:24:08;;;;;;;;;;;;;;;0.28;75.98;101199.56;5371908;32;35430;-67
2024/01/23 04:27:23;;;;;;;;;;;;;;;0.78;76.16;101187.38;5356226;32;33954;-68
2024/01/23 04:30:25;;;;;;;;;;;;;;;1.36;72.48;101187.22;5354719;32;35318;-67
2024/01/23 04:33:27;;;;;;;;;;;;;;;0.54;76.84;101205.12;5374388;32;34419;-68
2024/01/23 04:36:30;;;;;;;;;;;;;;;0.16;77.53;101196.78;5354556;32;34137;-68
2024/01/23 04:39:32;;;;;;;;;;;;;;;0.76;75.20;101199.41;5371749;32;35628;-67
2024/01/23 04:42:35;;;;;;;;;;;;;;;1.31;74.24;101207.00;5368961;32;34300;-68
2024/01/23 04:45:37;;;;;;;;;;;;;;;0.81;73.26;101227.94;5372072;32;34272;-67
2024/01/23 04:48:40;;;;;;;;;;;;;;;0.91;74.95;101219.47;5370030;32;34844;-67
2024/01/23 04:51:42;;;;;;;;;;;;;;;0.94;75.14;101209.13;5354936;32;34435;-67
2024/01/23 04:54:44;;;;;;;;;;;;;;;0.47;75.55;101206.75;5372796;32;35368;-69
2024/01/23 04:57:47;;;;;;;;;;;;;;;1.25;74.66;101209.53;5355868;32;34210;-67
2024/01/23 05:00:49;;;;;;;;;;;;;;;2.11;69.34;101225.09;5374419;32;34653;-68
2024/01/23 05:03:51;;;;;;;;;;;;;;;1.85;70.08;101218.81;5354021;32;35286;-67
2024/01/23 05:06:54;;;;;;;;;;;;;;;2.28;67.97;101230.44;5369009;32;35246;-67
2024/01/23 05:09:56;;;;;;;;;;;;;;;1.51;69.95;101228.81;5374658;32;35315;-68
2024/01/23 05:12:58;;;;;;;;;;;;;;;1.60;69.93;101230.63;5354220;32;35378;-68
2024/01/23 05:16:00;;;;;;;;;;;;;;;2.20;68.40;101234.69;5367651;32;34824;-67
2024/01/23 05:19:03;;;;;;;;;;;;;;;1.34;70.65;101228.62;5354380;32;34895;-67
2024/01/23 05:22:05;;;;;;;;;;;;;;;1.46;70.86;101237.41;5359324;32;34408;-67
2024/01/23 05:25:19;;;;;;;;;;;;;;;1.28;72.52;101227.69;5363434;32;35476;-68
2024/01/23 05:28:47;;;;;;;;;;;;;;;1.76;69.50;101218.72;5368192;32;34514;-66
2024/01/23 05:31:49;;;;;;;;;;;;;;;2.60;66.27;101222.91;5366779;32;35114;-68
2024/01/23 05:34:51;;;;;;;;;;;;;;;1.46;69.64;101220.13;5360332;32;35522;-67
2024/01/23 05:37:54;;;;;;;;;;;;;;;1.51;70.50;101225.38;5359847;32;34873;-68
2024/01/23 05:40:56;;;;;;;;;;;;;;;2.29;68.42;101228.72;5355230;32;35336;-70
2024/01/23 05:43:58;;;;;;;;;;;;;;;1.71;70.25;101226.44;5371447;32;34700;-68
2024/01/23 05:47:00;;;;;;;;;;;;;;;1.88;69.31;101217.13;5372336;32;35546;-68
2024/01/23 05:50:03;;;;;;;;;;;;;;;1.89;69.35;101218.00;5370227;32;37159;-68
2024/01/23 05:53:05;;;;;;;;;;;;;;;1.94;69.38;101247.44;5373784;32;34279;-67
2024/01/23 05:56:07;;;;;;;;;;;;;;;2.71;66.41;101249.81;5359844;32;34356;-68
2024/01/23 05:59:09;;;;;;;;;;;;;;;2.98;64.78;101253.44;5373975;32;34991;-68
2024/01/23 06:02:11;;;;;;;;;;;;;;;1.62;68.47;101263.50;5354087;32;35107;-66
2024/01/23 06:05:13;;;;;;;;;;;;;;;2.33;67.05;101269.41;5371267;32;34828;-70
2024/01/23 06:08:15;;;;;;;;;;;;;;;2.70;65.93;101268.84;5369709;32;35490;-71
2024/01/23 06:11:17;;;;;;;;;;;;;;;2.48;65.92;101269.50;5369151;32;34391;-72
2024/01/23 06:14:19;;;;;;;;;;;;;;;1.86;68.77;101275.84;5358772;32;35826;-67
2024/01/23 06:17:21;;;;;;;;;;;;;;;2.35;67.89;101286.72;5362601;32;35064;-76
2024/01/23 06:20:23;;;;;;;;;;;;;;;2.77;66.37;101292.22;5368739;32;35048;-67
2024/01/23 06:23:25;;;;;;;;;;;;;;;2.93;65.71;101291.47;5369850;32;34937;-71
2024/01/23 06:26:27;;;;;;;;;;;;;;;2.62;65.68;101300.75;5369047;32;35051;-73
2024/01/23 06:29:30;;;;;;;;;;;;;;;1.76;69.63;101312.03;5360969;32;35545;-70
2024/01/23 06:32:33;;;;;;;;;;;;;;;2.88;66.93;101301.81;5368926;32;35101;-70
2024/01/23 06:35:36;;;;;;;;;;;;;;;2.70;66.20;101307.78;5358366;32;33386;-76
2024/01/23 06:38:38;;;;;;;;;;;;;;;2.02;68.52;101308.00;5353799;32;35418;-72
2024/01/23 06:41:40;;;;;;;;;;;;;;;2.53;67.80;101300.69;5365912;32;34266;-71
2024/01/23 06:44:42;;;;;;;;;;;;;;;2.87;67.61;101317.41;5367783;32;34480;-72
2024/01/23 06:47:44;;;;;;;;;;;;;;;2.60;66.38;101313.75;5354319;32;34378;-74
2024/01/23 06:50:46;;;;;;;;;;;;;;;2.89;65.71;101310.47;5367073;32;36954;-74
2024/01/23 06:53:50;;;;;;;;;;;;;;;3.28;64.17;101312.44;5362310;32;36494;-71
2024/01/23 06:56:52;;;;;;;;;;;;;;;3.22;64.26;101326.31;5345435;32;34589;-72
2024/01/23 06:59:54;;;;;;;;;;;;;;;4.08;61.82;101331.84;5369340;32;36981;-70
2024/01/23 07:02:56;;;;;;;;;;;;;;;4.35;60.62;101331.91;5360745;32;34391;-71
2024/01/23 07:05:59;;;;;;;;;;;;;;;3.77;61.32;101336.94;5362203;32;34296;-77
2024/01/23 07:09:01;;;;;;;;;;;;;;;3.18;65.33;101340.12;5349750;32;33312;-66
2024/01/23 07:12:03;;;;;;;;;;;;;;;3.82;62.17;101343.91;5358937;32;34256;-67
2024/01/23 07:15:06;;;;;;;;;;;;;;;4.20;60.96;101376.13;5347158;32;34192;-72
2024/01/23 07:18:10;;;;;;;;;;;;;;;3.98;61.95;101366.50;5351134;32;34062;-77
2024/01/23 07:21:12;;;;;;;;;;;;;;;3.86;61.78;101390.72;5359400;32;34973;-69
2024/01/23 07:24:17;;;;;;;;;;;;;;;3.86;62.55;101388.12;5347305;32;34535;-69
2024/01/23 07:27:20;;;;;;;;;;;;;;;3.84;62.88;101379.44;5363958;32;34402;-68
2024/01/23 07:30:22;;;;;;;;;;;;;;;3.51;64.26;101368.03;5359031;32;35084;-68
2024/01/23 07:33:24;;;;;;;;;;;;;;;2.67;65.73;101361.38;5360058;32;35459;-77
2024/01/23 07:36:26;;;;;;;;;;;;;;;3.51;64.05;101370.62;5353118;32;33533;-76
2024/01/23 07:39:29;;;;;;;;;;;;;;;3.52;64.98;101366.31;5350592;32;34385;-74
2024/01/23 07:42:32;;;;;;;;;;;;;;;3.66;63.07;101369.84;5364755;32;34318;-76
2024/01/23 07:45:34;;;;;;;;;;;;;;;4.25;61.65;101356.19;5353413;32;34195;-64
2024/01/23 07:48:38;;;;;;;;;;;;;;;4.40;61.49;101357.09;5352058;32;35722;-68
2024/01/23 07:51:45;;;;;;;;;;;;;;;4.97;58.75;101357.97;5362841;32;35912;-67
2024/01/23 07:54:48;;;;;;;;;;;;;;;3.57;63.39;101363.72;5367071;32;34514;-72
2024/01/23 07:57:50;;;;;;;;;;;;;;;4.57;59.98;101365.75;5355452;32;34149;-68
2024/01/23 08:00:52;;;;;;;;;;;;;;;3.30;63.64;101357.53;5357685;32;34371;-71
2024/01/23 08:03:54;;;;;;;;;;;;;;;3.46;62.71;101359.34;5356257;32;34366;-72
2024/01/23 08:06:56;;;;;;;;;;;;;;;4.70;58.73;101351.91;5355265;32;37155;-74
2024/01/23 08:09:59;;;;;;;;;;;;;;;3.78;60.89;101351.69;5351097;32;35083;-75
2024/01/23 08:13:02;;;;;;;;;;;;;;;3.92;62.08;101366.47;5360967;32;35021;-71
2024/01/23 08:16:07;;;;;;;;;;;;;;;4.12;61.53;101372.59;5357417;32;33981;-72
2024/01/23 08:19:09;;;;;;;;;;;;;;;4.77;58.26;101387.50;5352375;32;36634;-71
2024/01/23 08:22:12;;;;;;;;;;;;;;;5.22;57.11;101400.53;5353923;32;35278;-77
2024/01/23 08:25:14;;;;;;;;;;;;;;;5.10;56.84;101407.47;5362224;32;34171;-70
2024/01/23 08:28:16;;;;;;;;;;;;;;;4.23;60.92;101409.06;5363385;32;34936;-72
2024/01/23 08:31:18;;;;;;;;;;;;;;;4.36;59.18;101400.44;5368094;32;35801;-71
2024/01/23 08:34:22;;;;;;;;;;;;;;;3.85;61.31;101414.13;5353182;32;34154;-73
2024/01/23 08:37:25;;;;;;;;;;;;;;;5.31;57.27;101427.44;5356106;32;34402;-75
2024/01/23 08:40:27;;;;;;;;;;;;;;;3.61;61.41;101418.34;5364179;32;34998;-73
2024/01/23 08:43:29;;;;;;;;;;;;;;;4.79;60.07;101408.34;5369898;32;34391;-72
2024/01/23 08:46:31;;;;;;;;;;;;;;;5.30;56.93;101404.84;5342236;32;34489;-69
2024/01/23 08:49:34;;;;;;;;;;;;;;;5.31;56.75;101414.41;5355187;32;33648;-68
2024/01/23 08:52:36;;;;;;;;;;;;;;;4.07;61.45;101434.19;5351055;32;35107;-66
2024/01/23 08:55:38;;;;;;;;;;;;;;;4.45;60.45;101417.84;5349784;32;34417;-73
2024/01/23 08:58:40;;;;;;;;;;;;;;;5.35;58.54;101417.88;5353955;32;36009;-70
2024/01/23 09:01:42;;;;;;;;;;;;;;;5.75;55.60;101418.66;5340646;32;34280;-78
2024/01/23 09:04:45;;;;;;;;;;;;;;;5.92;55.66;101411.66;5339308;32;39667;-82
2024/01/23 09:07:47;;;;;;;;;;;;;;;5.72;56.64;101416.06;5354950;32;35152;-70
2024/01/23 09:10:51;;;;;;;;;;;;;;;5.55;56.42;101428.28;5354557;32;35718;-69
2024/01/23 09:13:53;;;;;;;;;;;;;;;4.59;59.56;101432.63;5350171;32;34758;-69
2024/01/23 09:16:55;;;;;;;;;;;;;;;5.09;59.49;101421.38;5353393;32;35374;-71
2024/01/23 09:19:58;;;;;;;;;;;;;;;5.15;59.45;101416.16;5353658;32;35618;-72
2024/01/23 09:23:01;;;;;;;;;;;;;;;4.75;61.17;101427.41;5341173;32;34941;-80
2024/01/23 09:26:03;;;;;;;;;;;;;;;5.60;58.77;101409.16;5354217;32;34765;-69
2024/01/23 09:29:06;;;;;;;;;;;;;;;4.47;60.39;101432.59;5347093;32;34296;-77
2024/01/23 09:32:07;;;;;;;;;;;;;;;5.50;58.39;101430.91;5338303;32;33214;-68
2024/01/23 09:35:11;;;;;;;;;;;;;;;5.90;56.70;101426.44;5352321;32;34849;-71
2024/01/23 09:38:13;;;;;;;;;;;;;;;5.25;57.60;101437.88;5347050;32;35531;-74
2024/01/23 09:41:15;;;;;;;;;;;;;;;4.89;59.62;101439.63;5353784;32;34333;-81
2024/01/23 09:44:21;;;;;;;;;;;;;;;4.78;60.74;101438.72;5354666;32;36083;-75
2024/01/23 09:47:23;;;;;;;;;;;;;;;4.39;62.02;101438.66;5353969;32;33445;-74
2024/01/23 09:50:28;;;;;;;;;;;;;;;4.57;63.40;101439.56;5337677;32;35577;-79
2024/01/23 09:53:34;;;;;;;;;;;;;;;5.37;59.47;101426.56;5327848;32;34366;-78
2024/01/23 09:56:38;;;;;;;;;;;;;;;4.88;62.76;101418.75;5341744;32;34610;-76
2024/01/23 09:59:40;;;;;;;;;;;;;;;5.91;58.63;101404.72;5334737;32;34056;-78
2024/01/23 10:02:42;;;;;;;;;;;;;;;5.96;57.14;101408.19;5345003;32;37271;-71
2024/01/23 10:05:44;;;;;;;;;;;;;;;5.33;60.18;101412.66;5349771;32;35639;-70
2024/01/23 10:08:46;;;;;;;;;;;;;;;5.07;61.03;101423.09;5356103;32;34430;-72
2024/01/23 10:11:49;;;;;;;;;;;;;;;5.43;60.34;101427.44;5341801;32;36786;-65
2024/01/23 10:14:51;;;;;;;;;;;;;;;5.00;60.90;101415.28;5361237;32;34829;-67
2024/01/23 10:17:53;;;;;;;;;;;;;;;5.64;59.56;101421.28;5359289;32;34216;-71
2024/01/23 10:20:56;;;;;;;;;;;;;;;5.42;59.77;101420.47;5358914;32;34199;-68
2024/01/23 10:23:58;;;;;;;;;;;;;;;5.12;61.53;101423.97;5342911;32;34692;-71
2024/01/23 10:27:01;;;;;;;;;;;;;;;6.52;56.98;101414.00;5345930;32;35608;-75
2024/01/23 10:30:03;;;;;;;;;;;;;;;6.59;56.60;101414.84;5370424;32;35347;-66
2024/01/23 10:33:06;;;;;;;;;;;;;;;6.93;57.09;101411.09;5343521;32;33351;-64
2024/01/23 10:36:09;;;;;;;;;;;;;;;8.35;53.30;101404.34;5342910;32;34368;-72
2024/01/23 10:39:11;;;;;;;;;;;;;;;9.53;47.86;101397.19;5363506;32;37210;-69
2024/01/23 10:42:13;;;;;;;;;;;;;;;11.09;44.31;101399.09;5352445;32;34254;-69
2024/01/23 10:45:16;;;;;;;;;;;;;;;12.66;41.10;101389.34;5347755;32;36355;-71
2024/01/23 10:48:19;;;;;;;;;;;;;;;13.33;39.24;101381.00;5346738;32;34754;-68
2024/01/23 10:51:22;;;;;;;;;;;;;;;13.52;37.19;101371.53;5367482;32;34717;-73
2024/01/23 10:54:24;;;;;;;;;;;;;;;14.16;36.84;101364.75;5349249;32;35318;-76
2024/01/23 10:57:26;;;;;;;;;;;;;;;14.43;35.41;101358.41;5344092;32;33407;-73
2024/01/23 11:00:28;;;;;;;;;;;;;;;13.41;37.94;101364.91;5352615;32;35809;-67
2024/01/23 11:03:32;;;;;;;;;;;;;;;14.29;36.14;101366.00;5361157;32;35807;-70
2024/01/23 11:06:34;;;;;;;;;;;;;;;12.16;40.23;101375.94;5340053;32;34140;-68
2024/01/23 11:09:39;;;;;;;;;;;;;;;14.50;36.30;101381.09;5348419;32;34161;-68
2024/01/23 11:12:45;;;;;;;;;;;;;;;13.77;36.40;101374.12;5348656;32;34244;-70
2024/01/23 11:15:48;;;;;;;;;;;;;;;13.26;38.33;101361.84;5350940;32;34198;-68
2024/01/23 11:18:52;;;;;;;;;;;;;;;13.40;38.29;101358.75;5364941;32;34879;-65
2024/01/23 11:22:02;;;;;;;;;;;;;;;12.22;39.92;101359.09;5365584;32;36280;-67
2024/01/23 11:25:05;;;;;;;;;;;;;;;12.98;39.00;101364.56;5360890;32;37496;-85
2024/01/23 11:28:07;;;;;;;;;;;;;;;11.77;42.28;101362.13;5369667;32;36453;-75
2024/01/23 11:31:20;;;;;;;;;;;;;;;12.86;40.16;101343.84;5368568;32;36058;-87
2024/01/23 11:34:22;;;;;;;;;;;;;;;13.36;38.99;101346.56;5368109;32;34067;-76
2024/01/23 11:37:33;;;;;;;;;;;;;;;12.36;40.69;101337.56;5369827;32;36397;-80
2024/01/23 11:40:37;;;;;;;;;;;;;;;12.74;40.11;101331.91;5354853;32;34045;-76
2024/01/23 11:43:45;;;;;;;;;;;;;;;13.39;39.34;101322.69;5352368;32;35474;-69
2024/01/23 11:46:48;;;;;;;;;;;;;;;13.50;38.82;101323.16;5353899;32;35288;-65
2024/01/23 11:49:50;;;;;;;;;;;;;;;14.57;37.76;101311.13;5369988;32;34172;-69
2024/01/23 11:52:53;;;;;;;;;;;;;;;13.89;38.02;101311.16;5369675;32;34154;-70
2024/01/23 11:55:55;;;;;;;;;;;;;;;12.03;41.83;101326.28;5352640;32;34629;-68
2024/01/23 11:58:58;;;;;;;;;;;;;;;13.77;39.37;101320.41;5365737;32;35820;-69
2024/01/23 12:02:00;;;;;;;;;;;;;;;12.46;41.61;101333.75;5355325;32;34164;-70
2024/01/23 12:05:02;;;;;;;;;;;;;;;12.36;41.61;101335.78;5352585;32;34262;-70
2024/01/23 12:08:04;;;;;;;;;;;;;;;12.00;42.85;101337.78;5361730;32;34335;-65
2024/01/23 12:11:07;;;;;;;;;;;;;;;12.76;41.29;101337.16;5367380;32;34270;-68
2024/01/23 12:14:11;;;;;;;;;;;;;;;14.46;38.12;101330.97;5350294;32;34753;-68
2024/01/23 12:17:13;;;;;;;;;;;;;;;15.20;35.92;101332.31;5350733;32;34838;-75
2024/01/23 12:20:16;;;;;;;;;;;;;;;14.22;37.60;101338.94;5357018;32;35316;-71
2024/01/23 12:23:19;;;;;;;;;;;;;;;13.64;38.54;101353.50;5346775;32;34482;-87
2024/01/23 12:26:21;;;;;;;;;;;;;;;12.90;40.44;101353.41;5353345;32;34495;-74
2024/01/23 12:29:23;;;;;;;;;;;;;;;12.70;40.76;101361.97;5341767;32;34633;-69
2024/01/23 12:32:29;;;;;;;;;;;;;;;12.04;42.21;101376.31;5353944;32;35925;-75
2024/01/23 12:35:31;;;;;;;;;;;;;;;11.30;44.06;101376.59;5338077;32;34333;-76
2024/01/23 12:38:34;;;;;;;;;;;;;;;10.56;46.57;101378.44;5322741;32;34394;-72
2024/01/23 12:41:36;;;;;;;;;;;;;;;9.87;48.59;101386.06;5336666;32;34948;-69
2024/01/23 12:44:38;;;;;;;;;;;;;;;10.64;47.54;101374.78;5338761;32;36987;-66
2024/01/23 12:47:43;;;;;;;;;;;;;;;11.03;47.18;101370.28;5355424;32;35501;-72
2024/01/23 12:50:46;;;;;;;;;;;;;;;10.92;48.52;101372.31;5333827;32;35066;-70
2024/01/23 12:53:48;;;;;;;;;;;;;;;10.97;48.76;101375.72;5343820;32;34316;-71
2024/01/23 12:56:52;;;;;;;;;;;;;;;9.96;50.73;101377.97;5337472;32;34402;-77
2024/01/23 12:59:55;;;;;;;;;;;;;;;9.73;52.10;101381.09;5330695;32;35671;-63
2024/01/23 13:02:57;;;;;;;;;;;;;;;10.72;49.94;101384.19;5352245;32;34236;-72
2024/01/23 13:05:59;;;;;;;;;;;;;;;11.11;48.69;101377.09;5362588;32;33534;-74
2024/01/23 13:09:02;;;;;;;;;;;;;;;10.87;48.82;101388.22;5362651;32;34413;-73
2024/01/23 13:12:05;;;;;;;;;;;;;;;10.46;50.27;101384.78;5362198;32;34361;-64
2024/01/23 13:15:08;;;;;;;;;;;;;;;8.99;54.91;101394.66;5345790;32;34855;-71
2024/01/23 13:18:11;;;;;;;;;;;;;;;11.65;47.87;101388.81;5355261;32;35871;-74
2024/01/23 13:21:13;;;;;;;;;;;;;;;13.99;42.49;101379.50;5360213;32;36751;-69
2024/01/23 13:24:18;;;;;;;;;;;;;;;14.17;40.29;101384.97;5365020;32;34287;-68
2024/01/23 13:27:20;;;;;;;;;;;;;;;14.83;39.37;101391.22;5364895;32;35317;-68
2024/01/23 13:30:23;;;;;;;;;;;;;;;12.60;44.47;101396.59;5369523;32;34400;-66
2024/01/23 13:33:29;;;;;;;;;;;;;;;13.95;41.24;101401.66;5368170;32;36726;-69
2024/01/23 13:36:36;;;;;;;;;;;;;;;12.68;44.15;101394.56;5368030;32;34571;-68
2024/01/23 13:39:38;;;;;;;;;;;;;;;14.76;39.86;101389.75;5365430;32;35465;-66
2024/01/23 13:42:40;;;;;;;;;;;;;;;13.61;41.73;101409.09;5366695;32;34689;-73
2024/01/23 13:45:44;;;;;;;;;;;;;;;14.20;40.22;101400.75;5369964;32;33557;-73
2024/01/23 13:48:47;;;;;;;;;;;;;;;11.97;44.76;101416.91;5365051;32;33289;-85
2024/01/23 13:51:52;;;;;;;;;;;;;;;12.26;43.87;101424.00;5349191;32;34611;-74
2024/01/23 13:54:54;;;;;;;;;;;;;;;11.12;46.65;101430.56;5367168;32;34329;-79
2024/01/23 13:57:56;;;;;;;;;;;;;;;11.36;46.89;101422.06;5366222;32;37758;-76
2024/01/23 14:00:58;;;;;;;;;;;;;;;10.80;48.27;101433.97;5371727;32;35530;-72
2024/01/23 14:04:01;;;;;;;;;;;;;;;10.61;48.84;101438.78;5366659;32;34450;-77
2024/01/23 14:07:05;;;;;;;;;;;;;;;11.85;46.27;101444.50;5353482;32;34903;-73
2024/01/23 14:10:17;;;;;;;;;;;;;;;10.91;47.95;101441.62;5367105;32;34809;-69
2024/01/23 14:13:22;;;;;;;;;;;;;;;11.66;46.17;101435.31;5356595;32;34414;-69
2024/01/23 14:16:24;;;;;;;;;;;;;;;9.09;52.34;101447.84;5371229;32;34261;-71
2024/01/23 14:19:26;;;;;;;;;;;;;;;10.86;49.05;101449.59;5353413;32;33445;-65
2024/01/23 14:22:29;;;;;;;;;;;;;;;10.32;49.23;101463.09;5358471;32;34189;-64
2024/01/23 14:25:31;;;;;;;;;;;;;;;9.89;51.66;101461.28;5366610;32;35025;-68
2024/01/23 14:28:33;;;;;;;;;;;;;;;9.11;53.41;101472.28;5373414;32;34479;-63
2024/01/23 14:31:36;;;;;;;;;;;;;;;9.67;52.76;101480.97;5353830;32;36407;-65
2024/01/23 14:34:39;;;;;;;;;;;;;;;8.61;54.40;101486.97;5364691;32;33277;-65
2024/01/23 14:37:42;;;;;;;;;;;;;;;7.93;57.06;101497.38;5366989;32;35887;-67
2024/01/23 14:40:47;;;;;;;;;;;;;;;8.19;56.34;101493.59;5372582;32;35206;-65
2024/01/23 14:43:50;;;;;;;;;;;;;;;7.99;56.76;101504.31;5360233;32;34341;-68
2024/01/23 14:46:53;;;;;;;;;;;;;;;8.38;56.31;101503.88;5367000;32;36477;-71
2024/01/23 14:49:56;;;;;;;;;;;;;;;9.30;53.57;101502.56;5353938;32;33110;-67
2024/01/23 14:52:58;;;;;;;;;;;;;;;8.69;55.37;101511.31;5356488;32;34735;-75
2024/01/23 14:56:01;;;;;;;;;;;;;;;7.53;58.44;101521.28;5363445;32;34678;-69
2024/01/23 14:59:03;;;;;;;;;;;;;;;8.14;57.79;101528.56;5353955;32;35485;-67
2024/01/23 15:02:07;;;;;;;;;;;;;;;8.13;58.02;101526.84;5357366;32;35659;-73
2024/01/23 15:05:10;;;;;;;;;;;;;;;7.23;60.73;101537.25;5359990;32;36564;-79
2024/01/23 15:08:13;;;;;;;;;;;;;;;7.37;60.33;101543.22;5356640;32;35971;-72
2024/01/23 15:11:16;;;;;;;;;;;;;;;7.53;59.82;101555.28;5339056;32;34737;-81
2024/01/23 15:14:20;;;;;;;;;;;;;;;7.72;59.85;101561.25;5351802;32;34280;-84
2024/01/23 15:17:22;;;;;;;;;;;;;;;7.46;60.24;101571.94;5353256;32;35354;-82
2024/01/23 15:20:24;;;;;;;;;;;;;;;7.18;60.99;101565.16;5357739;32;34726;-71
2024/01/23 15:23:27;;;;;;;;;;;;;;;8.07;58.76;101560.06;5366303;32;35938;-71
2024/01/23 15:26:29;;;;;;;;;;;;;;;8.17;58.19;101553.84;5356104;32;33975;-68
2024/01/23 15:29:31;;;;;;;;;;;;;;;7.68;59.43;101549.09;5371440;32;34227;-72
2024/01/23 15:32:33;;;;;;;;;;;;;;;6.60;62.57;101566.31;5357417;32;34706;-68
2024/01/23 15:35:35;;;;;;;;;;;;;;;7.21;61.07;101559.91;5374015;32;35383;-73
2024/01/23 15:38:39;;;;;;;;;;;;;;;6.95;61.92;101560.91;5370127;32;34351;-71
2024/01/23 15:41:41;;;;;;;;;;;;;;;7.41;61.15;101572.87;5374549;32;35410;-74
2024/01/23 15:44:46;;;;;;;;;;;;;;;7.42;61.37;101578.06;5374032;32;34646;-74
2024/01/23 15:47:49;;;;;;;;;;;;;;;6.67;63.58;101586.31;5376732;32;35513;-73
2024/01/23 15:50:51;;;;;;;;;;;;;;;7.30;61.59;101593.84;5366365;32;34338;-71